sensor_id;sensor_type;location;lat;lon;timestamp;P1;durP1;ratioP1;P2;durP2;ratioP2
14040;SDS011;7095;51.388;6.196;2022-08-19T00:00:08;24.17;;;17.80;;
14040;SDS011;7095;51.388;6.196;2022-08-19T00:02:38;19.43;;;16.83;;
14040;SDS011;7095;51.388;6.196;2022-08-19T00:05:16;19.17;;;15.60;;
14040;SDS011;7095;51.388;6.196;2022-08-19T00:07:45;26.50;;;15.80;;
14040;SDS011;7095;51.388;6.196;2022-08-19T00:10:15;22.83;;;17.00;;
14040;SDS011;7095;51.388;6.196;2022-08-19T00:12:46;19.80;;;16.63;;
14040;SDS011;7095;51.388;6.196;2022-08-19T00:15:17;19.70;;;17.70;;
14040;SDS011;7095;51.388;6.196;2022-08-19T00:17:47;20.80;;;17.97;;
14040;SDS011;7095;51.388;6.196;2022-08-19T00:20:18;22.13;;;18.30;;
14040;SDS011;7095;51.388;6.196;2022-08-19T00:22:50;23.43;;;17.37;;
14040;SDS011;7095;51.388;6.196;2022-08-19T00:25:19;25.23;;;16.67;;
14040;SDS011;7095;51.388;6.196;2022-08-19T00:27:56;24.90;;;17.50;;
14040;SDS011;7095;51.388;6.196;2022-08-19T00:30:30;21.87;;;17.67;;
14040;SDS011;7095;51.388;6.196;2022-08-19T00:32:58;25.60;;;16.80;;
14040;SDS011;7095;51.388;6.196;2022-08-19T00:35:27;20.13;;;17.90;;
14040;SDS011;7095;51.388;6.196;2022-08-19T00:37:56;21.30;;;16.80;;
14040;SDS011;7095;51.388;6.196;2022-08-19T00:40:25;25.07;;;16.33;;
14040;SDS011;7095;51.388;6.196;2022-08-19T00:42:54;19.13;;;16.47;;
14040;SDS011;7095;51.388;6.196;2022-08-19T00:45:25;18.33;;;16.60;;
14040;SDS011;7095;51.388;6.196;2022-08-19T00:47:59;22.67;;;20.40;;
14040;SDS011;7095;51.388;6.196;2022-08-19T00:50:40;20.83;;;16.93;;
14040;SDS011;7095;51.388;6.196;2022-08-19T00:53:18;19.67;;;17.63;;
14040;SDS011;7095;51.388;6.196;2022-08-19T00:55:50;24.77;;;20.87;;
14040;SDS011;7095;51.388;6.196;2022-08-19T00:58:22;25.77;;;18.90;;
14040;SDS011;7095;51.388;6.196;2022-08-19T01:00:56;24.97;;;19.83;;
14040;SDS011;7095;51.388;6.196;2022-08-19T01:03:27;22.37;;;18.63;;
14040;SDS011;7095;51.388;6.196;2022-08-19T01:06:16;23.73;;;16.73;;
14040;SDS011;7095;51.388;6.196;2022-08-19T01:08:46;20.87;;;17.80;;
14040;SDS011;7095;51.388;6.196;2022-08-19T01:11:16;23.53;;;20.77;;
14040;SDS011;7095;51.388;6.196;2022-08-19T01:13:45;24.97;;;18.23;;
14040;SDS011;7095;51.388;6.196;2022-08-19T01:16:16;22.73;;;18.70;;
14040;SDS011;7095;51.388;6.196;2022-08-19T01:18:50;24.30;;;18.17;;
14040;SDS011;7095;51.388;6.196;2022-08-19T01:21:20;26.70;;;17.77;;
14040;SDS011;7095;51.388;6.196;2022-08-19T01:23:55;25.73;;;19.60;;
14040;SDS011;7095;51.388;6.196;2022-08-19T01:26:25;22.00;;;19.93;;
14040;SDS011;7095;51.388;6.196;2022-08-19T01:28:57;24.63;;;22.20;;
14040;SDS011;7095;51.388;6.196;2022-08-19T01:31:30;23.67;;;21.27;;
14040;SDS011;7095;51.388;6.196;2022-08-19T01:34:03;24.40;;;19.30;;
14040;SDS011;7095;51.388;6.196;2022-08-19T01:36:34;24.27;;;21.80;;
14040;SDS011;7095;51.388;6.196;2022-08-19T01:39:08;24.07;;;19.60;;
14040;SDS011;7095;51.388;6.196;2022-08-19T01:41:43;26.77;;;21.77;;
14040;SDS011;7095;51.388;6.196;2022-08-19T01:44:11;32.63;;;28.83;;
14040;SDS011;7095;51.388;6.196;2022-08-19T01:46:45;33.23;;;23.47;;
14040;SDS011;7095;51.388;6.196;2022-08-19T01:49:16;23.27;;;20.77;;
14040;SDS011;7095;51.388;6.196;2022-08-19T01:51:47;21.27;;;16.97;;
14040;SDS011;7095;51.388;6.196;2022-08-19T01:54:18;29.37;;;19.73;;
14040;SDS011;7095;51.388;6.196;2022-08-19T01:56:53;22.10;;;19.73;;
14040;SDS011;7095;51.388;6.196;2022-08-19T01:59:29;24.53;;;18.37;;
14040;SDS011;7095;51.388;6.196;2022-08-19T02:02:00;28.77;;;19.80;;
14040;SDS011;7095;51.388;6.196;2022-08-19T02:04:28;24.60;;;19.60;;
14040;SDS011;7095;51.388;6.196;2022-08-19T02:06:57;28.73;;;21.20;;
14040;SDS011;7095;51.388;6.196;2022-08-19T02:09:27;25.57;;;18.10;;
14040;SDS011;7095;51.388;6.196;2022-08-19T02:11:55;22.83;;;19.80;;
14040;SDS011;7095;51.388;6.196;2022-08-19T02:14:24;25.23;;;19.87;;
14040;SDS011;7095;51.388;6.196;2022-08-19T02:16:53;27.20;;;19.83;;
14040;SDS011;7095;51.388;6.196;2022-08-19T02:19:22;28.17;;;24.90;;
14040;SDS011;7095;51.388;6.196;2022-08-19T02:21:51;30.90;;;20.57;;
14040;SDS011;7095;51.388;6.196;2022-08-19T02:24:20;32.90;;;21.97;;
14040;SDS011;7095;51.388;6.196;2022-08-19T02:26:50;29.47;;;21.67;;
14040;SDS011;7095;51.388;6.196;2022-08-19T02:29:19;23.20;;;20.87;;
14040;SDS011;7095;51.388;6.196;2022-08-19T02:31:48;34.57;;;19.90;;
14040;SDS011;7095;51.388;6.196;2022-08-19T02:34:16;20.00;;;16.93;;
14040;SDS011;7095;51.388;6.196;2022-08-19T02:36:45;20.93;;;18.83;;
14040;SDS011;7095;51.388;6.196;2022-08-19T02:39:18;142.13;;;25.43;;
14040;SDS011;7095;51.388;6.196;2022-08-19T02:41:45;33.23;;;24.67;;
14040;SDS011;7095;51.388;6.196;2022-08-19T02:44:17;29.27;;;21.93;;
14040;SDS011;7095;51.388;6.196;2022-08-19T02:46:57;25.60;;;21.73;;
14040;SDS011;7095;51.388;6.196;2022-08-19T02:49:25;26.10;;;22.50;;
14040;SDS011;7095;51.388;6.196;2022-08-19T02:51:54;24.57;;;22.13;;
14040;SDS011;7095;51.388;6.196;2022-08-19T02:54:22;29.20;;;22.03;;
14040;SDS011;7095;51.388;6.196;2022-08-19T02:56:51;31.43;;;21.67;;
14040;SDS011;7095;51.388;6.196;2022-08-19T02:59:22;37.73;;;31.70;;
14040;SDS011;7095;51.388;6.196;2022-08-19T03:01:51;35.00;;;26.70;;
14040;SDS011;7095;51.388;6.196;2022-08-19T03:04:20;33.73;;;27.37;;
14040;SDS011;7095;51.388;6.196;2022-08-19T03:06:49;38.57;;;26.80;;
14040;SDS011;7095;51.388;6.196;2022-08-19T03:09:19;36.53;;;29.67;;
14040;SDS011;7095;51.388;6.196;2022-08-19T03:11:48;35.60;;;29.20;;
14040;SDS011;7095;51.388;6.196;2022-08-19T03:14:18;39.23;;;29.97;;
14040;SDS011;7095;51.388;6.196;2022-08-19T03:16:49;41.47;;;35.13;;
14040;SDS011;7095;51.388;6.196;2022-08-19T03:19:19;43.07;;;30.77;;
14040;SDS011;7095;51.388;6.196;2022-08-19T03:21:49;38.33;;;33.17;;
14040;SDS011;7095;51.388;6.196;2022-08-19T03:24:19;40.27;;;34.70;;
14040;SDS011;7095;51.388;6.196;2022-08-19T03:26:48;45.93;;;38.70;;
14040;SDS011;7095;51.388;6.196;2022-08-19T03:29:19;43.30;;;36.73;;
14040;SDS011;7095;51.388;6.196;2022-08-19T03:31:58;47.33;;;35.57;;
14040;SDS011;7095;51.388;6.196;2022-08-19T03:34:31;44.10;;;34.57;;
14040;SDS011;7095;51.388;6.196;2022-08-19T03:37:03;47.43;;;35.47;;
14040;SDS011;7095;51.388;6.196;2022-08-19T03:39:35;41.03;;;33.33;;
14040;SDS011;7095;51.388;6.196;2022-08-19T03:42:05;43.10;;;36.47;;
14040;SDS011;7095;51.388;6.196;2022-08-19T03:44:53;47.90;;;35.77;;
14040;SDS011;7095;51.388;6.196;2022-08-19T03:47:23;43.70;;;37.43;;
14040;SDS011;7095;51.388;6.196;2022-08-19T03:49:52;46.80;;;37.17;;
14040;SDS011;7095;51.388;6.196;2022-08-19T03:52:24;46.50;;;40.37;;
14040;SDS011;7095;51.388;6.196;2022-08-19T03:54:52;45.10;;;39.37;;
14040;SDS011;7095;51.388;6.196;2022-08-19T03:57:21;46.07;;;38.40;;
14040;SDS011;7095;51.388;6.196;2022-08-19T03:59:58;66.53;;;52.37;;
14040;SDS011;7095;51.388;6.196;2022-08-19T04:02:40;70.77;;;57.40;;
14040;SDS011;7095;51.388;6.196;2022-08-19T04:05:26;67.33;;;54.53;;
14040;SDS011;7095;51.388;6.196;2022-08-19T04:07:56;69.73;;;52.57;;
14040;SDS011;7095;51.388;6.196;2022-08-19T04:10:26;83.50;;;64.53;;
14040;SDS011;7095;51.388;6.196;2022-08-19T04:12:55;78.10;;;59.93;;
14040;SDS011;7095;51.388;6.196;2022-08-19T04:15:24;77.37;;;57.37;;
14040;SDS011;7095;51.388;6.196;2022-08-19T04:17:54;83.50;;;61.53;;
14040;SDS011;7095;51.388;6.196;2022-08-19T04:20:23;82.70;;;60.83;;
14040;SDS011;7095;51.388;6.196;2022-08-19T04:22:51;80.40;;;60.27;;
14040;SDS011;7095;51.388;6.196;2022-08-19T04:25:20;82.97;;;59.83;;
14040;SDS011;7095;51.388;6.196;2022-08-19T04:27:48;79.57;;;59.90;;
14040;SDS011;7095;51.388;6.196;2022-08-19T04:30:17;78.50;;;57.40;;
14040;SDS011;7095;51.388;6.196;2022-08-19T04:32:47;86.43;;;60.90;;
14040;SDS011;7095;51.388;6.196;2022-08-19T04:35:19;84.30;;;59.63;;
14040;SDS011;7095;51.388;6.196;2022-08-19T04:37:50;86.50;;;59.57;;
14040;SDS011;7095;51.388;6.196;2022-08-19T04:40:19;84.63;;;58.47;;
14040;SDS011;7095;51.388;6.196;2022-08-19T04:43:05;85.47;;;59.67;;
14040;SDS011;7095;51.388;6.196;2022-08-19T04:45:35;89.37;;;61.87;;
14040;SDS011;7095;51.388;6.196;2022-08-19T04:48:09;91.77;;;61.93;;
14040;SDS011;7095;51.388;6.196;2022-08-19T04:50:55;80.70;;;58.90;;
14040;SDS011;7095;51.388;6.196;2022-08-19T04:53:25;83.30;;;60.87;;
14040;SDS011;7095;51.388;6.196;2022-08-19T04:56:04;76.93;;;57.50;;
14040;SDS011;7095;51.388;6.196;2022-08-19T04:58:35;75.70;;;56.23;;
14040;SDS011;7095;51.388;6.196;2022-08-19T05:01:05;74.37;;;56.17;;
14040;SDS011;7095;51.388;6.196;2022-08-19T05:03:35;80.47;;;57.87;;
14040;SDS011;7095;51.388;6.196;2022-08-19T05:06:09;76.47;;;55.17;;
14040;SDS011;7095;51.388;6.196;2022-08-19T05:08:40;75.17;;;56.20;;
14040;SDS011;7095;51.388;6.196;2022-08-19T05:11:10;77.70;;;56.70;;
14040;SDS011;7095;51.388;6.196;2022-08-19T05:13:41;73.70;;;54.80;;
14040;SDS011;7095;51.388;6.196;2022-08-19T05:16:11;81.63;;;57.43;;
14040;SDS011;7095;51.388;6.196;2022-08-19T05:18:41;72.50;;;54.83;;
14040;SDS011;7095;51.388;6.196;2022-08-19T05:21:29;83.00;;;58.10;;
14040;SDS011;7095;51.388;6.196;2022-08-19T05:24:16;75.20;;;55.43;;
14040;SDS011;7095;51.388;6.196;2022-08-19T05:26:46;85.17;;;57.57;;
14040;SDS011;7095;51.388;6.196;2022-08-19T05:29:17;78.93;;;56.43;;
14040;SDS011;7095;51.388;6.196;2022-08-19T05:31:48;81.67;;;59.90;;
14040;SDS011;7095;51.388;6.196;2022-08-19T05:34:18;77.97;;;57.43;;
14040;SDS011;7095;51.388;6.196;2022-08-19T05:36:51;76.37;;;57.03;;
14040;SDS011;7095;51.388;6.196;2022-08-19T05:39:24;78.13;;;57.93;;
14040;SDS011;7095;51.388;6.196;2022-08-19T05:41:56;79.93;;;58.60;;
14040;SDS011;7095;51.388;6.196;2022-08-19T05:44:27;87.50;;;61.23;;
14040;SDS011;7095;51.388;6.196;2022-08-19T05:46:58;80.93;;;60.90;;
14040;SDS011;7095;51.388;6.196;2022-08-19T05:49:30;85.00;;;59.87;;
14040;SDS011;7095;51.388;6.196;2022-08-19T05:52:02;83.60;;;60.20;;
14040;SDS011;7095;51.388;6.196;2022-08-19T05:54:32;84.77;;;59.63;;
14040;SDS011;7095;51.388;6.196;2022-08-19T05:57:02;85.77;;;61.37;;
14040;SDS011;7095;51.388;6.196;2022-08-19T05:59:31;83.00;;;61.43;;
14040;SDS011;7095;51.388;6.196;2022-08-19T06:02:00;87.47;;;60.77;;
14040;SDS011;7095;51.388;6.196;2022-08-19T06:04:30;95.27;;;66.93;;
14040;SDS011;7095;51.388;6.196;2022-08-19T06:06:59;90.67;;;64.60;;
14040;SDS011;7095;51.388;6.196;2022-08-19T06:09:40;97.53;;;69.40;;
14040;SDS011;7095;51.388;6.196;2022-08-19T06:12:25;94.87;;;67.53;;
14040;SDS011;7095;51.388;6.196;2022-08-19T06:14:58;99.23;;;68.67;;
14040;SDS011;7095;51.388;6.196;2022-08-19T06:17:28;100.37;;;68.17;;
14040;SDS011;7095;51.388;6.196;2022-08-19T06:19:57;102.77;;;71.03;;
14040;SDS011;7095;51.388;6.196;2022-08-19T06:22:27;100.87;;;69.00;;
14040;SDS011;7095;51.388;6.196;2022-08-19T06:24:59;105.87;;;71.53;;
14040;SDS011;7095;51.388;6.196;2022-08-19T06:27:28;101.50;;;70.40;;
14040;SDS011;7095;51.388;6.196;2022-08-19T06:29:59;106.87;;;72.47;;
14040;SDS011;7095;51.388;6.196;2022-08-19T06:32:28;105.47;;;73.13;;
14040;SDS011;7095;51.388;6.196;2022-08-19T06:34:58;107.23;;;72.37;;
14040;SDS011;7095;51.388;6.196;2022-08-19T06:37:26;113.90;;;72.57;;
14040;SDS011;7095;51.388;6.196;2022-08-19T06:39:55;110.20;;;69.60;;
14040;SDS011;7095;51.388;6.196;2022-08-19T06:42:25;108.80;;;71.87;;
14040;SDS011;7095;51.388;6.196;2022-08-19T06:44:54;104.57;;;70.83;;
14040;SDS011;7095;51.388;6.196;2022-08-19T06:47:23;103.10;;;70.53;;
14040;SDS011;7095;51.388;6.196;2022-08-19T06:49:54;105.33;;;71.27;;
14040;SDS011;7095;51.388;6.196;2022-08-19T06:52:29;105.67;;;71.00;;
14040;SDS011;7095;51.388;6.196;2022-08-19T06:55:00;106.50;;;70.50;;
14040;SDS011;7095;51.388;6.196;2022-08-19T06:57:33;101.30;;;66.13;;
14040;SDS011;7095;51.388;6.196;2022-08-19T07:00:03;95.40;;;65.07;;
14040;SDS011;7095;51.388;6.196;2022-08-19T07:02:47;98.47;;;66.83;;
14040;SDS011;7095;51.388;6.196;2022-08-19T07:05:25;92.57;;;63.33;;
14040;SDS011;7095;51.388;6.196;2022-08-19T07:07:53;88.97;;;61.07;;
14040;SDS011;7095;51.388;6.196;2022-08-19T07:10:28;88.00;;;58.47;;
14040;SDS011;7095;51.388;6.196;2022-08-19T07:13:01;86.63;;;58.37;;
14040;SDS011;7095;51.388;6.196;2022-08-19T07:15:30;83.30;;;58.60;;
14040;SDS011;7095;51.388;6.196;2022-08-19T07:18:01;75.27;;;57.80;;
14040;SDS011;7095;51.388;6.196;2022-08-19T07:20:30;74.77;;;54.73;;
14040;SDS011;7095;51.388;6.196;2022-08-19T07:23:00;80.10;;;55.87;;
14040;SDS011;7095;51.388;6.196;2022-08-19T07:25:32;75.13;;;56.30;;
14040;SDS011;7095;51.388;6.196;2022-08-19T07:28:03;79.80;;;56.07;;
14040;SDS011;7095;51.388;6.196;2022-08-19T07:30:46;74.53;;;54.43;;
14040;SDS011;7095;51.388;6.196;2022-08-19T07:33:18;72.97;;;55.10;;
14040;SDS011;7095;51.388;6.196;2022-08-19T07:35:47;74.47;;;55.93;;
14040;SDS011;7095;51.388;6.196;2022-08-19T07:38:16;80.03;;;56.37;;
14040;SDS011;7095;51.388;6.196;2022-08-19T07:40:45;74.67;;;55.33;;
14040;SDS011;7095;51.388;6.196;2022-08-19T07:43:15;77.00;;;56.73;;
14040;SDS011;7095;51.388;6.196;2022-08-19T07:45:49;78.93;;;56.00;;
14040;SDS011;7095;51.388;6.196;2022-08-19T07:48:17;69.77;;;54.10;;
14040;SDS011;7095;51.388;6.196;2022-08-19T07:50:46;78.47;;;58.07;;
14040;SDS011;7095;51.388;6.196;2022-08-19T07:53:15;74.37;;;55.33;;
14040;SDS011;7095;51.388;6.196;2022-08-19T07:55:43;74.83;;;54.47;;
14040;SDS011;7095;51.388;6.196;2022-08-19T07:58:13;68.37;;;53.87;;
14040;SDS011;7095;51.388;6.196;2022-08-19T08:00:45;76.30;;;54.40;;
14040;SDS011;7095;51.388;6.196;2022-08-19T08:03:18;66.20;;;50.97;;
14040;SDS011;7095;51.388;6.196;2022-08-19T08:05:47;67.87;;;52.40;;
14040;SDS011;7095;51.388;6.196;2022-08-19T08:08:34;68.23;;;51.77;;
14040;SDS011;7095;51.388;6.196;2022-08-19T08:11:20;71.50;;;53.07;;
14040;SDS011;7095;51.388;6.196;2022-08-19T08:13:51;67.47;;;51.57;;
14040;SDS011;7095;51.388;6.196;2022-08-19T08:16:30;66.40;;;54.67;;
14040;SDS011;7095;51.388;6.196;2022-08-19T08:19:13;65.30;;;51.90;;
14040;SDS011;7095;51.388;6.196;2022-08-19T08:21:53;66.13;;;51.93;;
14040;SDS011;7095;51.388;6.196;2022-08-19T08:24:23;61.43;;;49.00;;
14040;SDS011;7095;51.388;6.196;2022-08-19T08:26:54;60.50;;;48.43;;
14040;SDS011;7095;51.388;6.196;2022-08-19T08:29:27;63.67;;;50.47;;
14040;SDS011;7095;51.388;6.196;2022-08-19T08:32:01;59.30;;;47.90;;
14040;SDS011;7095;51.388;6.196;2022-08-19T08:34:40;57.73;;;44.27;;
14040;SDS011;7095;51.388;6.196;2022-08-19T08:37:09;53.50;;;41.83;;
14040;SDS011;7095;51.388;6.196;2022-08-19T08:39:41;53.60;;;42.20;;
14040;SDS011;7095;51.388;6.196;2022-08-19T08:42:12;51.63;;;41.53;;
14040;SDS011;7095;51.388;6.196;2022-08-19T08:44:51;49.30;;;41.67;;
14040;SDS011;7095;51.388;6.196;2022-08-19T08:47:30;52.03;;;42.20;;
14040;SDS011;7095;51.388;6.196;2022-08-19T08:50:08;49.10;;;38.90;;
14040;SDS011;7095;51.388;6.196;2022-08-19T08:52:43;49.80;;;38.33;;
14040;SDS011;7095;51.388;6.196;2022-08-19T08:55:15;45.70;;;37.90;;
14040;SDS011;7095;51.388;6.196;2022-08-19T08:57:49;48.13;;;37.27;;
14040;SDS011;7095;51.388;6.196;2022-08-19T09:00:24;45.83;;;37.77;;
14040;SDS011;7095;51.388;6.196;2022-08-19T09:02:54;44.40;;;34.50;;
14040;SDS011;7095;51.388;6.196;2022-08-19T09:05:38;40.83;;;34.10;;
14040;SDS011;7095;51.388;6.196;2022-08-19T09:08:18;41.70;;;31.67;;
14040;SDS011;7095;51.388;6.196;2022-08-19T09:10:56;32.67;;;28.30;;
14040;SDS011;7095;51.388;6.196;2022-08-19T09:13:27;37.87;;;28.97;;
14040;SDS011;7095;51.388;6.196;2022-08-19T09:16:06;35.30;;;29.70;;
14040;SDS011;7095;51.388;6.196;2022-08-19T09:18:38;34.83;;;28.10;;
14040;SDS011;7095;51.388;6.196;2022-08-19T09:21:09;35.53;;;27.80;;
14040;SDS011;7095;51.388;6.196;2022-08-19T09:23:38;31.33;;;27.13;;
14040;SDS011;7095;51.388;6.196;2022-08-19T09:26:07;29.90;;;24.57;;
14040;SDS011;7095;51.388;6.196;2022-08-19T09:28:37;32.70;;;24.63;;
14040;SDS011;7095;51.388;6.196;2022-08-19T09:31:11;33.10;;;26.90;;
14040;SDS011;7095;51.388;6.196;2022-08-19T09:33:41;34.30;;;25.20;;
14040;SDS011;7095;51.388;6.196;2022-08-19T09:36:11;30.00;;;23.73;;
14040;SDS011;7095;51.388;6.196;2022-08-19T09:39:00;35.23;;;25.70;;
14040;SDS011;7095;51.388;6.196;2022-08-19T09:41:29;32.13;;;25.40;;
14040;SDS011;7095;51.388;6.196;2022-08-19T09:44:00;34.47;;;24.97;;
14040;SDS011;7095;51.388;6.196;2022-08-19T09:46:29;30.77;;;24.67;;
14040;SDS011;7095;51.388;6.196;2022-08-19T09:48:59;33.00;;;24.40;;
14040;SDS011;7095;51.388;6.196;2022-08-19T09:51:32;30.37;;;23.17;;
14040;SDS011;7095;51.388;6.196;2022-08-19T09:54:03;26.30;;;23.10;;
14040;SDS011;7095;51.388;6.196;2022-08-19T09:56:36;32.00;;;22.73;;
14040;SDS011;7095;51.388;6.196;2022-08-19T09:59:08;28.37;;;22.80;;
14040;SDS011;7095;51.388;6.196;2022-08-19T10:01:41;23.37;;;20.03;;
14040;SDS011;7095;51.388;6.196;2022-08-19T10:04:11;23.57;;;20.13;;
14040;SDS011;7095;51.388;6.196;2022-08-19T10:06:48;26.97;;;20.67;;
14040;SDS011;7095;51.388;6.196;2022-08-19T10:09:21;21.60;;;18.97;;
14040;SDS011;7095;51.388;6.196;2022-08-19T10:12:00;19.03;;;16.23;;
14040;SDS011;7095;51.388;6.196;2022-08-19T10:14:31;19.30;;;17.27;;
14040;SDS011;7095;51.388;6.196;2022-08-19T10:17:02;20.33;;;16.97;;
14040;SDS011;7095;51.388;6.196;2022-08-19T10:19:45;21.67;;;16.10;;
14040;SDS011;7095;51.388;6.196;2022-08-19T10:22:22;21.87;;;16.20;;
14040;SDS011;7095;51.388;6.196;2022-08-19T10:24:52;24.30;;;15.97;;
14040;SDS011;7095;51.388;6.196;2022-08-19T10:27:21;23.13;;;15.43;;
14040;SDS011;7095;51.388;6.196;2022-08-19T10:29:52;19.73;;;15.97;;
14040;SDS011;7095;51.388;6.196;2022-08-19T10:32:25;18.67;;;15.07;;
14040;SDS011;7095;51.388;6.196;2022-08-19T10:35:00;16.20;;;13.83;;
14040;SDS011;7095;51.388;6.196;2022-08-19T10:37:34;18.23;;;13.73;;
14040;SDS011;7095;51.388;6.196;2022-08-19T10:40:23;18.87;;;14.67;;
14040;SDS011;7095;51.388;6.196;2022-08-19T10:42:51;19.67;;;14.93;;
14040;SDS011;7095;51.388;6.196;2022-08-19T10:45:20;19.27;;;12.33;;
14040;SDS011;7095;51.388;6.196;2022-08-19T10:47:55;19.53;;;13.00;;
14040;SDS011;7095;51.388;6.196;2022-08-19T10:50:24;19.23;;;11.20;;
14040;SDS011;7095;51.388;6.196;2022-08-19T10:53:10;23.77;;;12.37;;
14040;SDS011;7095;51.388;6.196;2022-08-19T10:55:38;13.40;;;11.57;;
14040;SDS011;7095;51.388;6.196;2022-08-19T10:58:24;16.67;;;12.37;;
14040;SDS011;7095;51.388;6.196;2022-08-19T11:00:53;14.67;;;9.67;;
14040;SDS011;7095;51.388;6.196;2022-08-19T11:03:26;11.27;;;7.83;;
14040;SDS011;7095;51.388;6.196;2022-08-19T11:05:57;11.43;;;9.30;;
14040;SDS011;7095;51.388;6.196;2022-08-19T11:08:27;17.77;;;12.00;;
14040;SDS011;7095;51.388;6.196;2022-08-19T11:10:58;17.37;;;11.80;;
14040;SDS011;7095;51.388;6.196;2022-08-19T11:13:30;11.73;;;8.67;;
14040;SDS011;7095;51.388;6.196;2022-08-19T11:16:05;11.73;;;7.67;;
14040;SDS011;7095;51.388;6.196;2022-08-19T11:18:37;7.90;;;6.27;;
14040;SDS011;7095;51.388;6.196;2022-08-19T11:21:08;13.23;;;7.80;;
14040;SDS011;7095;51.388;6.196;2022-08-19T11:23:39;12.73;;;6.90;;
14040;SDS011;7095;51.388;6.196;2022-08-19T11:26:08;12.60;;;6.80;;
14040;SDS011;7095;51.388;6.196;2022-08-19T11:28:37;10.77;;;7.40;;
14040;SDS011;7095;51.388;6.196;2022-08-19T11:31:09;11.53;;;8.63;;
14040;SDS011;7095;51.388;6.196;2022-08-19T11:33:39;11.13;;;8.43;;
14040;SDS011;7095;51.388;6.196;2022-08-19T11:36:13;13.50;;;8.00;;
14040;SDS011;7095;51.388;6.196;2022-08-19T11:38:42;10.90;;;9.27;;
14040;SDS011;7095;51.388;6.196;2022-08-19T11:41:11;10.07;;;8.40;;
14040;SDS011;7095;51.388;6.196;2022-08-19T11:43:40;14.80;;;7.17;;
14040;SDS011;7095;51.388;6.196;2022-08-19T11:46:10;12.87;;;7.33;;
14040;SDS011;7095;51.388;6.196;2022-08-19T11:48:42;12.27;;;7.30;;
14040;SDS011;7095;51.388;6.196;2022-08-19T11:51:12;10.63;;;7.73;;
14040;SDS011;7095;51.388;6.196;2022-08-19T11:53:42;9.90;;;6.57;;
14040;SDS011;7095;51.388;6.196;2022-08-19T11:56:11;11.53;;;7.73;;
14040;SDS011;7095;51.388;6.196;2022-08-19T11:58:40;10.40;;;6.93;;
14040;SDS011;7095;51.388;6.196;2022-08-19T12:01:09;10.30;;;6.55;;
14040;SDS011;7095;51.388;6.196;2022-08-19T12:03:41;11.60;;;6.22;;
14040;SDS011;7095;51.388;6.196;2022-08-19T12:06:11;6.78;;;5.60;;
14040;SDS011;7095;51.388;6.196;2022-08-19T12:08:41;14.13;;;5.82;;
14040;SDS011;7095;51.388;6.196;2022-08-19T12:11:12;9.63;;;6.90;;
14040;SDS011;7095;51.388;6.196;2022-08-19T12:13:42;15.23;;;8.35;;
14040;SDS011;7095;51.388;6.196;2022-08-19T12:16:13;13.27;;;7.35;;
14040;SDS011;7095;51.388;6.196;2022-08-19T12:18:45;11.40;;;8.27;;
14040;SDS011;7095;51.388;6.196;2022-08-19T12:21:15;11.20;;;6.18;;
14040;SDS011;7095;51.388;6.196;2022-08-19T12:23:44;9.43;;;6.72;;
14040;SDS011;7095;51.388;6.196;2022-08-19T12:26:13;10.27;;;7.43;;
14040;SDS011;7095;51.388;6.196;2022-08-19T12:28:42;8.30;;;6.65;;
14040;SDS011;7095;51.388;6.196;2022-08-19T12:31:11;10.55;;;8.95;;
14040;SDS011;7095;51.388;6.196;2022-08-19T12:33:40;11.88;;;8.20;;
14040;SDS011;7095;51.388;6.196;2022-08-19T12:36:11;9.88;;;7.13;;
14040;SDS011;7095;51.388;6.196;2022-08-19T12:38:42;10.38;;;8.50;;
14040;SDS011;7095;51.388;6.196;2022-08-19T12:41:13;12.57;;;8.20;;
14040;SDS011;7095;51.388;6.196;2022-08-19T12:43:45;10.98;;;7.97;;
14040;SDS011;7095;51.388;6.196;2022-08-19T12:46:15;9.73;;;6.45;;
14040;SDS011;7095;51.388;6.196;2022-08-19T12:48:49;12.27;;;7.78;;
14040;SDS011;7095;51.388;6.196;2022-08-19T12:51:22;18.40;;;7.22;;
14040;SDS011;7095;51.388;6.196;2022-08-19T12:53:52;7.88;;;6.05;;
14040;SDS011;7095;51.388;6.196;2022-08-19T12:56:20;14.48;;;5.78;;
14040;SDS011;7095;51.388;6.196;2022-08-19T12:58:49;8.57;;;5.90;;
14040;SDS011;7095;51.388;6.196;2022-08-19T13:01:19;8.23;;;6.15;;
14040;SDS011;7095;51.388;6.196;2022-08-19T13:03:49;9.25;;;6.05;;
14040;SDS011;7095;51.388;6.196;2022-08-19T13:06:20;7.53;;;5.82;;
14040;SDS011;7095;51.388;6.196;2022-08-19T13:08:50;5.38;;;4.68;;
14040;SDS011;7095;51.388;6.196;2022-08-19T13:11:25;8.75;;;4.47;;
14040;SDS011;7095;51.388;6.196;2022-08-19T13:13:59;5.65;;;4.22;;
14040;SDS011;7095;51.388;6.196;2022-08-19T13:16:28;8.30;;;5.28;;
14040;SDS011;7095;51.388;6.196;2022-08-19T13:19:00;6.88;;;5.22;;
14040;SDS011;7095;51.388;6.196;2022-08-19T13:21:31;10.43;;;6.07;;
14040;SDS011;7095;51.388;6.196;2022-08-19T13:24:01;6.38;;;4.90;;
14040;SDS011;7095;51.388;6.196;2022-08-19T13:26:30;8.30;;;5.07;;
14040;SDS011;7095;51.388;6.196;2022-08-19T13:28:59;7.05;;;5.45;;
14040;SDS011;7095;51.388;6.196;2022-08-19T13:31:45;8.35;;;5.38;;
14040;SDS011;7095;51.388;6.196;2022-08-19T13:34:33;6.05;;;5.45;;
14040;SDS011;7095;51.388;6.196;2022-08-19T13:37:03;11.00;;;6.07;;
14040;SDS011;7095;51.388;6.196;2022-08-19T13:39:34;9.15;;;7.53;;
14040;SDS011;7095;51.388;6.196;2022-08-19T13:42:04;8.98;;;7.63;;
14040;SDS011;7095;51.388;6.196;2022-08-19T13:44:32;9.38;;;7.20;;
14040;SDS011;7095;51.388;6.196;2022-08-19T13:47:02;12.63;;;7.95;;
14040;SDS011;7095;51.388;6.196;2022-08-19T13:49:35;11.90;;;8.65;;
14040;SDS011;7095;51.388;6.196;2022-08-19T13:52:04;9.85;;;8.15;;
14040;SDS011;7095;51.388;6.196;2022-08-19T13:54:34;12.77;;;9.95;;
14040;SDS011;7095;51.388;6.196;2022-08-19T13:57:03;11.15;;;10.02;;
14040;SDS011;7095;51.388;6.196;2022-08-19T13:59:33;11.35;;;10.07;;
14040;SDS011;7095;51.388;6.196;2022-08-19T14:02:01;13.23;;;9.73;;
14040;SDS011;7095;51.388;6.196;2022-08-19T14:04:32;21.30;;;10.32;;
14040;SDS011;7095;51.388;6.196;2022-08-19T14:07:00;14.20;;;12.77;;
14040;SDS011;7095;51.388;6.196;2022-08-19T14:09:29;13.90;;;12.35;;
14040;SDS011;7095;51.388;6.196;2022-08-19T14:11:59;18.52;;;13.45;;
14040;SDS011;7095;51.388;6.196;2022-08-19T14:14:28;12.52;;;10.80;;
14040;SDS011;7095;51.388;6.196;2022-08-19T14:16:56;12.95;;;11.10;;
14040;SDS011;7095;51.388;6.196;2022-08-19T14:19:25;12.27;;;10.88;;
14040;SDS011;7095;51.388;6.196;2022-08-19T14:21:55;11.38;;;10.18;;
14040;SDS011;7095;51.388;6.196;2022-08-19T14:24:25;12.82;;;11.07;;
14040;SDS011;7095;51.388;6.196;2022-08-19T14:26:53;13.20;;;11.77;;
14040;SDS011;7095;51.388;6.196;2022-08-19T14:29:23;14.45;;;12.13;;
14040;SDS011;7095;51.388;6.196;2022-08-19T14:31:52;12.98;;;11.18;;
14040;SDS011;7095;51.388;6.196;2022-08-19T14:34:20;13.98;;;11.38;;
14040;SDS011;7095;51.388;6.196;2022-08-19T14:36:48;11.63;;;10.13;;
14040;SDS011;7095;51.388;6.196;2022-08-19T14:39:17;11.90;;;10.70;;
14040;SDS011;7095;51.388;6.196;2022-08-19T14:41:46;12.02;;;10.73;;
14040;SDS011;7095;51.388;6.196;2022-08-19T14:44:14;15.98;;;13.02;;
14040;SDS011;7095;51.388;6.196;2022-08-19T14:46:44;13.82;;;12.38;;
14040;SDS011;7095;51.388;6.196;2022-08-19T14:49:15;13.27;;;11.65;;
14040;SDS011;7095;51.388;6.196;2022-08-19T14:51:45;11.52;;;10.32;;
14040;SDS011;7095;51.388;6.196;2022-08-19T14:54:14;12.77;;;10.70;;
14040;SDS011;7095;51.388;6.196;2022-08-19T14:56:42;12.35;;;9.02;;
14040;SDS011;7095;51.388;6.196;2022-08-19T14:59:11;14.55;;;10.70;;
14040;SDS011;7095;51.388;6.196;2022-08-19T15:01:39;16.30;;;10.43;;
14040;SDS011;7095;51.388;6.196;2022-08-19T15:04:10;11.13;;;9.85;;